sensor_id;sensor_type;location;lat;lon;timestamp;P1;durP1;ratioP1;P2;durP2;ratioP2
7076;SDS011;3579;48.956;9.154;2022-07-29T00:00:07;3.60;;;2.97;;
7076;SDS011;3579;48.956;9.154;2022-07-29T00:02:34;2.70;;;2.40;;
7076;SDS011;3579;48.956;9.154;2022-07-29T00:05:01;3.83;;;2.87;;
7076;SDS011;3579;48.956;9.154;2022-07-29T00:07:27;3.90;;;2.97;;
7076;SDS011;3579;48.956;9.154;2022-07-29T00:09:53;3.23;;;2.60;;
7076;SDS011;3579;48.956;9.154;2022-07-29T00:12:19;4.07;;;2.63;;
7076;SDS011;3579;48.956;9.154;2022-07-29T00:14:46;3.00;;;2.57;;
7076;SDS011;3579;48.956;9.154;2022-07-29T00:17:12;2.90;;;2.50;;
7076;SDS011;3579;48.956;9.154;2022-07-29T00:19:38;3.47;;;2.70;;
7076;SDS011;3579;48.956;9.154;2022-07-29T00:22:04;2.80;;;2.60;;
7076;SDS011;3579;48.956;9.154;2022-07-29T00:24:30;3.17;;;2.73;;
7076;SDS011;3579;48.956;9.154;2022-07-29T00:26:56;3.70;;;2.90;;
7076;SDS011;3579;48.956;9.154;2022-07-29T00:29:22;3.33;;;2.80;;
7076;SDS011;3579;48.956;9.154;2022-07-29T00:31:48;3.10;;;2.40;;
7076;SDS011;3579;48.956;9.154;2022-07-29T00:34:15;3.10;;;2.73;;
7076;SDS011;3579;48.956;9.154;2022-07-29T00:36:59;3.50;;;2.90;;
7076;SDS011;3579;48.956;9.154;2022-07-29T00:39:25;2.53;;;2.33;;
7076;SDS011;3579;48.956;9.154;2022-07-29T00:41:51;3.17;;;2.87;;
7076;SDS011;3579;48.956;9.154;2022-07-29T00:44:17;4.40;;;2.80;;
7076;SDS011;3579;48.956;9.154;2022-07-29T00:46:43;2.77;;;2.53;;
7076;SDS011;3579;48.956;9.154;2022-07-29T00:49:09;3.20;;;2.83;;
7076;SDS011;3579;48.956;9.154;2022-07-29T00:51:35;3.70;;;2.90;;
7076;SDS011;3579;48.956;9.154;2022-07-29T00:54:02;2.83;;;2.40;;
7076;SDS011;3579;48.956;9.154;2022-07-29T00:56:32;2.90;;;2.60;;
7076;SDS011;3579;48.956;9.154;2022-07-29T00:58:59;4.73;;;2.73;;
7076;SDS011;3579;48.956;9.154;2022-07-29T01:01:25;2.97;;;2.67;;
7076;SDS011;3579;48.956;9.154;2022-07-29T01:03:52;3.63;;;2.73;;
7076;SDS011;3579;48.956;9.154;2022-07-29T01:06:18;3.67;;;2.93;;
7076;SDS011;3579;48.956;9.154;2022-07-29T01:08:45;3.27;;;2.90;;
7076;SDS011;3579;48.956;9.154;2022-07-29T01:11:12;4.03;;;2.77;;
7076;SDS011;3579;48.956;9.154;2022-07-29T01:13:41;3.20;;;2.60;;
7076;SDS011;3579;48.956;9.154;2022-07-29T01:16:21;3.73;;;2.70;;
7076;SDS011;3579;48.956;9.154;2022-07-29T01:18:56;2.30;;;2.10;;
7076;SDS011;3579;48.956;9.154;2022-07-29T01:27:03;2.90;;;2.60;;
7076;SDS011;3579;48.956;9.154;2022-07-29T01:29:49;3.00;;;2.70;;
7076;SDS011;3579;48.956;9.154;2022-07-29T01:32:22;2.90;;;2.60;;
7076;SDS011;3579;48.956;9.154;2022-07-29T01:34:53;3.10;;;2.70;;
7076;SDS011;3579;48.956;9.154;2022-07-29T01:38:05;2.67;;;2.47;;
7076;SDS011;3579;48.956;9.154;2022-07-29T01:40:48;3.17;;;2.73;;
7076;SDS011;3579;48.956;9.154;2022-07-29T01:43:27;3.57;;;2.43;;
7076;SDS011;3579;48.956;9.154;2022-07-29T01:46:03;2.77;;;2.53;;
7076;SDS011;3579;48.956;9.154;2022-07-29T01:51:24;2.77;;;2.37;;
7076;SDS011;3579;48.956;9.154;2022-07-29T01:54:02;3.27;;;2.50;;
7076;SDS011;3579;48.956;9.154;2022-07-29T01:56:33;3.10;;;2.80;;
7076;SDS011;3579;48.956;9.154;2022-07-29T01:59:01;2.90;;;2.70;;
7076;SDS011;3579;48.956;9.154;2022-07-29T02:01:31;2.53;;;2.20;;
7076;SDS011;3579;48.956;9.154;2022-07-29T02:03:59;2.80;;;2.30;;
7076;SDS011;3579;48.956;9.154;2022-07-29T02:06:28;2.80;;;2.53;;
7076;SDS011;3579;48.956;9.154;2022-07-29T02:08:56;3.67;;;2.70;;
7076;SDS011;3579;48.956;9.154;2022-07-29T02:11:24;3.43;;;2.93;;
7076;SDS011;3579;48.956;9.154;2022-07-29T02:13:50;3.97;;;3.03;;
7076;SDS011;3579;48.956;9.154;2022-07-29T02:16:18;2.60;;;2.40;;
7076;SDS011;3579;48.956;9.154;2022-07-29T02:18:48;2.63;;;2.43;;
7076;SDS011;3579;48.956;9.154;2022-07-29T02:21:19;2.90;;;2.40;;
7076;SDS011;3579;48.956;9.154;2022-07-29T02:23:49;3.27;;;2.70;;
7076;SDS011;3579;48.956;9.154;2022-07-29T02:26:21;3.00;;;2.70;;
7076;SDS011;3579;48.956;9.154;2022-07-29T02:28:50;2.43;;;2.23;;
7076;SDS011;3579;48.956;9.154;2022-07-29T02:31:20;2.73;;;2.43;;
7076;SDS011;3579;48.956;9.154;2022-07-29T02:33:49;3.00;;;2.70;;
7076;SDS011;3579;48.956;9.154;2022-07-29T02:36:17;2.60;;;2.40;;
7076;SDS011;3579;48.956;9.154;2022-07-29T02:38:44;3.40;;;2.70;;
7076;SDS011;3579;48.956;9.154;2022-07-29T02:41:19;2.57;;;2.37;;
7076;SDS011;3579;48.956;9.154;2022-07-29T02:43:50;3.00;;;2.53;;
7076;SDS011;3579;48.956;9.154;2022-07-29T02:46:25;3.90;;;2.80;;
7076;SDS011;3579;48.956;9.154;2022-07-29T02:51:49;2.90;;;2.60;;
7076;SDS011;3579;48.956;9.154;2022-07-29T02:54:41;2.80;;;2.60;;
7076;SDS011;3579;48.956;9.154;2022-07-29T02:57:14;2.50;;;2.30;;
7076;SDS011;3579;48.956;9.154;2022-07-29T02:59:47;3.43;;;2.60;;
7076;SDS011;3579;48.956;9.154;2022-07-29T03:02:16;2.77;;;2.50;;
7076;SDS011;3579;48.956;9.154;2022-07-29T03:04:43;2.73;;;2.53;;
7076;SDS011;3579;48.956;9.154;2022-07-29T03:07:12;2.60;;;2.40;;
7076;SDS011;3579;48.956;9.154;2022-07-29T03:09:40;2.50;;;2.30;;
7076;SDS011;3579;48.956;9.154;2022-07-29T03:12:08;2.77;;;2.57;;
7076;SDS011;3579;48.956;9.154;2022-07-29T03:14:34;2.93;;;2.63;;
7076;SDS011;3579;48.956;9.154;2022-07-29T03:17:01;3.87;;;2.70;;
7076;SDS011;3579;48.956;9.154;2022-07-29T03:19:27;3.93;;;2.80;;
7076;SDS011;3579;48.956;9.154;2022-07-29T03:21:58;2.90;;;2.57;;
7076;SDS011;3579;48.956;9.154;2022-07-29T03:24:24;2.77;;;2.27;;
7076;SDS011;3579;48.956;9.154;2022-07-29T03:26:51;2.87;;;2.60;;
7076;SDS011;3579;48.956;9.154;2022-07-29T03:29:17;2.30;;;2.10;;
7076;SDS011;3579;48.956;9.154;2022-07-29T03:31:43;3.13;;;2.63;;
7076;SDS011;3579;48.956;9.154;2022-07-29T03:34:09;2.80;;;2.60;;
7076;SDS011;3579;48.956;9.154;2022-07-29T03:36:35;3.00;;;2.70;;
7076;SDS011;3579;48.956;9.154;2022-07-29T03:39:01;2.97;;;2.53;;
7076;SDS011;3579;48.956;9.154;2022-07-29T03:41:28;2.80;;;2.50;;
7076;SDS011;3579;48.956;9.154;2022-07-29T03:43:56;3.00;;;2.40;;
7076;SDS011;3579;48.956;9.154;2022-07-29T03:46:24;2.80;;;2.40;;
7076;SDS011;3579;48.956;9.154;2022-07-29T03:48:55;2.73;;;2.53;;
7076;SDS011;3579;48.956;9.154;2022-07-29T03:51:28;2.93;;;2.40;;
7076;SDS011;3579;48.956;9.154;2022-07-29T03:53:54;2.33;;;2.13;;
7076;SDS011;3579;48.956;9.154;2022-07-29T03:56:21;3.90;;;2.50;;
7076;SDS011;3579;48.956;9.154;2022-07-29T03:58:49;2.70;;;2.20;;
7076;SDS011;3579;48.956;9.154;2022-07-29T04:01:17;2.50;;;2.30;;
7076;SDS011;3579;48.956;9.154;2022-07-29T04:03:44;2.80;;;2.50;;
7076;SDS011;3579;48.956;9.154;2022-07-29T04:06:11;3.00;;;2.70;;
7076;SDS011;3579;48.956;9.154;2022-07-29T04:08:37;2.60;;;2.40;;
7076;SDS011;3579;48.956;9.154;2022-07-29T04:11:04;2.63;;;2.43;;
7076;SDS011;3579;48.956;9.154;2022-07-29T04:13:31;2.47;;;2.27;;
7076;SDS011;3579;48.956;9.154;2022-07-29T04:15:57;2.60;;;2.40;;
7076;SDS011;3579;48.956;9.154;2022-07-29T04:18:23;2.50;;;2.30;;
7076;SDS011;3579;48.956;9.154;2022-07-29T04:20:50;2.77;;;2.57;;
7076;SDS011;3579;48.956;9.154;2022-07-29T04:23:16;3.20;;;2.37;;
7076;SDS011;3579;48.956;9.154;2022-07-29T04:25:42;2.77;;;2.40;;
7076;SDS011;3579;48.956;9.154;2022-07-29T04:28:08;3.17;;;2.30;;
7076;SDS011;3579;48.956;9.154;2022-07-29T04:30:35;3.23;;;2.93;;
7076;SDS011;3579;48.956;9.154;2022-07-29T04:33:04;4.20;;;2.63;;
7076;SDS011;3579;48.956;9.154;2022-07-29T04:35:33;2.63;;;2.30;;
7076;SDS011;3579;48.956;9.154;2022-07-29T04:38:01;2.50;;;2.30;;
7076;SDS011;3579;48.956;9.154;2022-07-29T04:40:28;2.73;;;2.30;;
7076;SDS011;3579;48.956;9.154;2022-07-29T04:42:54;3.07;;;2.50;;
7076;SDS011;3579;48.956;9.154;2022-07-29T04:45:20;4.23;;;2.57;;
7076;SDS011;3579;48.956;9.154;2022-07-29T04:47:46;2.40;;;2.20;;
7076;SDS011;3579;48.956;9.154;2022-07-29T04:50:12;3.17;;;2.60;;
7076;SDS011;3579;48.956;9.154;2022-07-29T04:52:38;3.27;;;2.43;;
7076;SDS011;3579;48.956;9.154;2022-07-29T04:55:04;3.93;;;2.60;;
7076;SDS011;3579;48.956;9.154;2022-07-29T04:57:31;2.77;;;2.43;;
7076;SDS011;3579;48.956;9.154;2022-07-29T04:59:57;2.70;;;2.20;;
7076;SDS011;3579;48.956;9.154;2022-07-29T05:02:23;5.30;;;2.60;;
7076;SDS011;3579;48.956;9.154;2022-07-29T05:04:49;2.57;;;2.37;;
7076;SDS011;3579;48.956;9.154;2022-07-29T05:07:14;3.07;;;2.40;;
7076;SDS011;3579;48.956;9.154;2022-07-29T05:09:40;3.60;;;2.70;;
7076;SDS011;3579;48.956;9.154;2022-07-29T05:12:06;2.53;;;2.33;;
7076;SDS011;3579;48.956;9.154;2022-07-29T05:14:33;2.50;;;2.30;;
7076;SDS011;3579;48.956;9.154;2022-07-29T05:16:59;3.17;;;2.73;;
7076;SDS011;3579;48.956;9.154;2022-07-29T05:19:25;3.43;;;2.50;;
7076;SDS011;3579;48.956;9.154;2022-07-29T05:21:51;5.10;;;2.30;;
7076;SDS011;3579;48.956;9.154;2022-07-29T05:24:18;3.70;;;2.20;;
7076;SDS011;3579;48.956;9.154;2022-07-29T05:26:44;3.30;;;2.57;;
7076;SDS011;3579;48.956;9.154;2022-07-29T05:29:09;2.47;;;2.13;;
7076;SDS011;3579;48.956;9.154;2022-07-29T05:31:36;2.93;;;2.60;;
7076;SDS011;3579;48.956;9.154;2022-07-29T05:34:02;2.90;;;2.70;;
7076;SDS011;3579;48.956;9.154;2022-07-29T05:36:28;2.97;;;2.53;;
7076;SDS011;3579;48.956;9.154;2022-07-29T05:38:54;3.17;;;2.60;;
7076;SDS011;3579;48.956;9.154;2022-07-29T05:41:20;3.43;;;2.60;;
7076;SDS011;3579;48.956;9.154;2022-07-29T05:43:46;3.00;;;2.60;;
7076;SDS011;3579;48.956;9.154;2022-07-29T05:46:12;3.50;;;2.60;;
7076;SDS011;3579;48.956;9.154;2022-07-29T05:48:39;6.53;;;4.10;;
7076;SDS011;3579;48.956;9.154;2022-07-29T05:51:05;8.90;;;4.37;;
7076;SDS011;3579;48.956;9.154;2022-07-29T05:53:31;6.33;;;4.00;;
7076;SDS011;3579;48.956;9.154;2022-07-29T05:55:57;6.87;;;4.57;;
7076;SDS011;3579;48.956;9.154;2022-07-29T05:58:23;9.40;;;5.10;;
7076;SDS011;3579;48.956;9.154;2022-07-29T06:00:49;5.57;;;4.60;;
7076;SDS011;3579;48.956;9.154;2022-07-29T06:03:15;6.10;;;4.50;;
7076;SDS011;3579;48.956;9.154;2022-07-29T06:05:41;7.80;;;4.70;;
7076;SDS011;3579;48.956;9.154;2022-07-29T06:08:07;6.83;;;4.70;;
7076;SDS011;3579;48.956;9.154;2022-07-29T06:10:34;5.30;;;4.63;;
7076;SDS011;3579;48.956;9.154;2022-07-29T06:13:00;8.13;;;4.47;;
7076;SDS011;3579;48.956;9.154;2022-07-29T06:15:26;6.23;;;4.87;;
7076;SDS011;3579;48.956;9.154;2022-07-29T06:17:53;6.47;;;5.00;;
7076;SDS011;3579;48.956;9.154;2022-07-29T06:20:19;6.80;;;4.93;;
7076;SDS011;3579;48.956;9.154;2022-07-29T06:22:46;6.27;;;4.87;;
7076;SDS011;3579;48.956;9.154;2022-07-29T06:25:12;8.80;;;4.70;;
7076;SDS011;3579;48.956;9.154;2022-07-29T06:27:38;5.50;;;4.60;;
7076;SDS011;3579;48.956;9.154;2022-07-29T06:30:04;5.83;;;4.70;;
7076;SDS011;3579;48.956;9.154;2022-07-29T06:32:33;6.37;;;4.77;;
7076;SDS011;3579;48.956;9.154;2022-07-29T06:35:00;8.07;;;4.97;;
7076;SDS011;3579;48.956;9.154;2022-07-29T06:37:26;6.07;;;4.67;;
7076;SDS011;3579;48.956;9.154;2022-07-29T06:39:52;5.83;;;4.70;;
7076;SDS011;3579;48.956;9.154;2022-07-29T06:42:41;7.50;;;4.33;;
7076;SDS011;3579;48.956;9.154;2022-07-29T06:45:08;7.33;;;4.10;;
7076;SDS011;3579;48.956;9.154;2022-07-29T06:47:35;7.07;;;5.10;;
7076;SDS011;3579;48.956;9.154;2022-07-29T06:50:02;7.80;;;4.17;;
7076;SDS011;3579;48.956;9.154;2022-07-29T06:52:28;6.30;;;4.00;;
7076;SDS011;3579;48.956;9.154;2022-07-29T06:54:54;8.50;;;4.07;;
7076;SDS011;3579;48.956;9.154;2022-07-29T06:57:21;6.70;;;4.30;;
7076;SDS011;3579;48.956;9.154;2022-07-29T06:59:47;8.53;;;4.50;;
7076;SDS011;3579;48.956;9.154;2022-07-29T07:02:14;7.07;;;4.17;;
7076;SDS011;3579;48.956;9.154;2022-07-29T07:04:40;8.40;;;4.43;;
7076;SDS011;3579;48.956;9.154;2022-07-29T07:07:07;4.83;;;3.77;;
7076;SDS011;3579;48.956;9.154;2022-07-29T07:09:33;7.50;;;4.10;;
7076;SDS011;3579;48.956;9.154;2022-07-29T07:11:59;7.47;;;4.30;;
7076;SDS011;3579;48.956;9.154;2022-07-29T07:14:25;5.57;;;4.63;;
7076;SDS011;3579;48.956;9.154;2022-07-29T07:16:52;6.40;;;4.50;;
7076;SDS011;3579;48.956;9.154;2022-07-29T07:19:19;9.67;;;4.33;;
7076;SDS011;3579;48.956;9.154;2022-07-29T07:21:45;7.13;;;4.70;;
7076;SDS011;3579;48.956;9.154;2022-07-29T07:24:11;6.70;;;3.83;;
7076;SDS011;3579;48.956;9.154;2022-07-29T07:26:37;4.90;;;3.63;;
7076;SDS011;3579;48.956;9.154;2022-07-29T07:29:05;5.37;;;3.77;;
7076;SDS011;3579;48.956;9.154;2022-07-29T07:31:32;5.67;;;3.87;;
7076;SDS011;3579;48.956;9.154;2022-07-29T07:33:58;9.37;;;3.77;;
7076;SDS011;3579;48.956;9.154;2022-07-29T07:36:24;8.27;;;3.63;;
7076;SDS011;3579;48.956;9.154;2022-07-29T07:38:50;6.30;;;3.40;;
7076;SDS011;3579;48.956;9.154;2022-07-29T07:41:17;4.73;;;3.83;;
7076;SDS011;3579;48.956;9.154;2022-07-29T07:43:43;5.00;;;3.70;;
7076;SDS011;3579;48.956;9.154;2022-07-29T07:46:10;5.47;;;3.60;;
7076;SDS011;3579;48.956;9.154;2022-07-29T07:48:36;7.57;;;4.00;;
7076;SDS011;3579;48.956;9.154;2022-07-29T07:51:03;7.17;;;3.40;;
7076;SDS011;3579;48.956;9.154;2022-07-29T07:53:29;7.90;;;4.30;;
7076;SDS011;3579;48.956;9.154;2022-07-29T07:55:56;7.10;;;4.00;;
7076;SDS011;3579;48.956;9.154;2022-07-29T07:58:22;3.97;;;3.40;;
7076;SDS011;3579;48.956;9.154;2022-07-29T08:00:48;5.83;;;3.70;;
7076;SDS011;3579;48.956;9.154;2022-07-29T08:03:14;6.13;;;3.80;;
7076;SDS011;3579;48.956;9.154;2022-07-29T08:05:40;6.83;;;3.70;;
7076;SDS011;3579;48.956;9.154;2022-07-29T08:08:07;5.27;;;3.37;;
7076;SDS011;3579;48.956;9.154;2022-07-29T08:10:33;6.33;;;3.67;;
7076;SDS011;3579;48.956;9.154;2022-07-29T08:13:18;5.80;;;3.63;;
7076;SDS011;3579;48.956;9.154;2022-07-29T08:15:46;9.93;;;3.90;;
7076;SDS011;3579;48.956;9.154;2022-07-29T08:18:12;7.77;;;3.87;;
7076;SDS011;3579;48.956;9.154;2022-07-29T08:20:39;4.83;;;3.43;;
7076;SDS011;3579;48.956;9.154;2022-07-29T08:23:06;5.17;;;3.67;;
7076;SDS011;3579;48.956;9.154;2022-07-29T08:25:37;6.63;;;3.80;;
7076;SDS011;3579;48.956;9.154;2022-07-29T08:28:07;4.53;;;3.60;;
7076;SDS011;3579;48.956;9.154;2022-07-29T08:30:33;4.97;;;3.70;;
7076;SDS011;3579;48.956;9.154;2022-07-29T08:33:00;3.90;;;3.30;;
7076;SDS011;3579;48.956;9.154;2022-07-29T08:35:26;6.57;;;4.33;;
7076;SDS011;3579;48.956;9.154;2022-07-29T08:37:53;6.90;;;4.20;;
7076;SDS011;3579;48.956;9.154;2022-07-29T08:40:19;8.97;;;3.80;;
7076;SDS011;3579;48.956;9.154;2022-07-29T08:42:46;5.87;;;4.03;;
7076;SDS011;3579;48.956;9.154;2022-07-29T08:45:12;5.63;;;3.77;;
7076;SDS011;3579;48.956;9.154;2022-07-29T08:47:38;4.67;;;3.63;;
7076;SDS011;3579;48.956;9.154;2022-07-29T08:50:06;4.97;;;3.80;;
7076;SDS011;3579;48.956;9.154;2022-07-29T08:52:34;6.13;;;3.80;;
7076;SDS011;3579;48.956;9.154;2022-07-29T08:55:03;5.30;;;3.87;;
7076;SDS011;3579;48.956;9.154;2022-07-29T08:57:30;5.90;;;3.70;;
7076;SDS011;3579;48.956;9.154;2022-07-29T08:59:57;5.43;;;3.50;;
7076;SDS011;3579;48.956;9.154;2022-07-29T09:02:26;5.57;;;3.57;;
7076;SDS011;3579;48.956;9.154;2022-07-29T09:04:55;5.63;;;3.50;;
7076;SDS011;3579;48.956;9.154;2022-07-29T09:07:25;4.53;;;3.40;;
7076;SDS011;3579;48.956;9.154;2022-07-29T09:09:51;3.87;;;3.50;;
7076;SDS011;3579;48.956;9.154;2022-07-29T09:12:17;8.03;;;3.77;;
7076;SDS011;3579;48.956;9.154;2022-07-29T09:14:44;7.73;;;4.30;;
7076;SDS011;3579;48.956;9.154;2022-07-29T09:17:10;4.97;;;3.53;;
7076;SDS011;3579;48.956;9.154;2022-07-29T09:19:36;11.80;;;4.40;;
7076;SDS011;3579;48.956;9.154;2022-07-29T09:22:04;7.43;;;3.87;;
7076;SDS011;3579;48.956;9.154;2022-07-29T09:24:41;7.87;;;4.37;;
7076;SDS011;3579;48.956;9.154;2022-07-29T09:30:02;7.20;;;3.93;;
7076;SDS011;3579;48.956;9.154;2022-07-29T09:32:57;5.80;;;4.00;;
7076;SDS011;3579;48.956;9.154;2022-07-29T09:35:28;9.30;;;4.17;;
7076;SDS011;3579;48.956;9.154;2022-07-29T09:37:55;8.90;;;4.00;;
7076;SDS011;3579;48.956;9.154;2022-07-29T09:40:23;7.07;;;3.87;;
7076;SDS011;3579;48.956;9.154;2022-07-29T09:42:51;6.67;;;3.70;;
7076;SDS011;3579;48.956;9.154;2022-07-29T09:45:29;7.93;;;3.50;;
7076;SDS011;3579;48.956;9.154;2022-07-29T09:47:58;7.33;;;3.83;;
7076;SDS011;3579;48.956;9.154;2022-07-29T09:50:41;7.37;;;3.90;;
7076;SDS011;3579;48.956;9.154;2022-07-29T09:53:09;6.70;;;3.50;;
7076;SDS011;3579;48.956;9.154;2022-07-29T09:55:49;5.57;;;3.80;;
7076;SDS011;3579;48.956;9.154;2022-07-29T09:58:20;6.47;;;3.30;;
7076;SDS011;3579;48.956;9.154;2022-07-29T10:00:47;5.17;;;3.40;;
7076;SDS011;3579;48.956;9.154;2022-07-29T10:03:15;4.10;;;3.50;;
7076;SDS011;3579;48.956;9.154;2022-07-29T10:05:42;5.30;;;3.50;;
7076;SDS011;3579;48.956;9.154;2022-07-29T10:08:09;3.77;;;3.13;;
7076;SDS011;3579;48.956;9.154;2022-07-29T10:10:38;4.17;;;3.10;;
7076;SDS011;3579;48.956;9.154;2022-07-29T10:13:12;5.17;;;3.47;;
7076;SDS011;3579;48.956;9.154;2022-07-29T10:15:43;3.33;;;3.00;;
7076;SDS011;3579;48.956;9.154;2022-07-29T10:18:12;7.00;;;3.23;;
7076;SDS011;3579;48.956;9.154;2022-07-29T10:20:39;5.10;;;3.30;;
7076;SDS011;3579;48.956;9.154;2022-07-29T10:23:08;4.77;;;3.33;;
7076;SDS011;3579;48.956;9.154;2022-07-29T10:25:35;3.90;;;3.50;;
7076;SDS011;3579;48.956;9.154;2022-07-29T10:28:01;6.60;;;3.37;;
7076;SDS011;3579;48.956;9.154;2022-07-29T10:30:28;3.50;;;3.20;;
7076;SDS011;3579;48.956;9.154;2022-07-29T10:46:37;9.20;;;3.33;;
7076;SDS011;3579;48.956;9.154;2022-07-29T10:49:20;4.83;;;3.30;;
7076;SDS011;3579;48.956;9.154;2022-07-29T10:52:08;6.17;;;3.63;;
7076;SDS011;3579;48.956;9.154;2022-07-29T11:05:00;3.47;;;3.03;;
7076;SDS011;3579;48.956;9.154;2022-07-29T11:10:39;5.43;;;3.33;;
7076;SDS011;3579;48.956;9.154;2022-07-29T11:13:07;6.10;;;3.30;;
7076;SDS011;3579;48.956;9.154;2022-07-29T11:18:19;7.07;;;3.77;;
7076;SDS011;3579;48.956;9.154;2022-07-29T11:20:47;3.50;;;2.80;;
7076;SDS011;3579;48.956;9.154;2022-07-29T11:23:31;4.07;;;3.00;;
7076;SDS011;3579;48.956;9.154;2022-07-29T11:31:34;8.63;;;3.10;;
7076;SDS011;3579;48.956;9.154;2022-07-29T11:39:40;5.43;;;3.10;;
7076;SDS011;3579;48.956;9.154;2022-07-29T11:47:32;4.97;;;3.07;;
7076;SDS011;3579;48.956;9.154;2022-07-29T11:50:00;6.53;;;3.13;;
7076;SDS011;3579;48.956;9.154;2022-07-29T11:52:34;7.17;;;2.90;;
7076;SDS011;3579;48.956;9.154;2022-07-29T11:55:15;4.73;;;3.30;;
7076;SDS011;3579;48.956;9.154;2022-07-29T11:57:46;3.17;;;2.70;;
7076;SDS011;3579;48.956;9.154;2022-07-29T12:00:20;4.20;;;3.43;;
7076;SDS011;3579;48.956;9.154;2022-07-29T12:02:47;3.83;;;3.03;;
7076;SDS011;3579;48.956;9.154;2022-07-29T12:05:13;3.30;;;2.80;;
7076;SDS011;3579;48.956;9.154;2022-07-29T12:07:40;4.77;;;2.57;;
7076;SDS011;3579;48.956;9.154;2022-07-29T12:10:07;3.77;;;2.90;;
7076;SDS011;3579;48.956;9.154;2022-07-29T12:12:34;4.37;;;2.90;;
7076;SDS011;3579;48.956;9.154;2022-07-29T12:15:17;4.87;;;3.00;;
7076;SDS011;3579;48.956;9.154;2022-07-29T12:17:50;4.30;;;3.10;;
7076;SDS011;3579;48.956;9.154;2022-07-29T12:20:28;3.57;;;3.00;;
7076;SDS011;3579;48.956;9.154;2022-07-29T12:22:57;3.27;;;2.97;;
7076;SDS011;3579;48.956;9.154;2022-07-29T12:25:24;3.83;;;2.70;;
7076;SDS011;3579;48.956;9.154;2022-07-29T12:28:00;3.87;;;2.97;;
7076;SDS011;3579;48.956;9.154;2022-07-29T12:30:38;5.00;;;3.30;;
7076;SDS011;3579;48.956;9.154;2022-07-29T12:35:53;3.33;;;2.70;;
7076;SDS011;3579;48.956;9.154;2022-07-29T12:38:24;3.60;;;3.00;;
7076;SDS011;3579;48.956;9.154;2022-07-29T12:40:57;3.20;;;2.67;;
7076;SDS011;3579;48.956;9.154;2022-07-29T12:43:28;7.70;;;3.53;;
7076;SDS011;3579;48.956;9.154;2022-07-29T12:45:56;4.63;;;3.43;;
7076;SDS011;3579;48.956;9.154;2022-07-29T12:48:37;9.13;;;3.83;;
7076;SDS011;3579;48.956;9.154;2022-07-29T12:51:06;8.13;;;4.10;;
7076;SDS011;3579;48.956;9.154;2022-07-29T12:53:35;7.53;;;3.87;;
7076;SDS011;3579;48.956;9.154;2022-07-29T12:56:04;6.63;;;3.90;;
7076;SDS011;3579;48.956;9.154;2022-07-29T12:58:38;7.97;;;3.97;;
7076;SDS011;3579;48.956;9.154;2022-07-29T13:03:42;9.63;;;4.03;;
7076;SDS011;3579;48.956;9.154;2022-07-29T13:09:12;7.87;;;3.60;;
7076;SDS011;3579;48.956;9.154;2022-07-29T13:11:57;9.57;;;4.23;;
7076;SDS011;3579;48.956;9.154;2022-07-29T13:14:32;7.90;;;4.00;;
7076;SDS011;3579;48.956;9.154;2022-07-29T13:17:09;8.53;;;4.37;;
7076;SDS011;3579;48.956;9.154;2022-07-29T13:19:42;7.57;;;3.90;;
7076;SDS011;3579;48.956;9.154;2022-07-29T13:22:10;6.17;;;3.67;;
7076;SDS011;3579;48.956;9.154;2022-07-29T13:27:20;4.43;;;3.53;;
7076;SDS011;3579;48.956;9.154;2022-07-29T13:29:55;8.60;;;3.80;;
7076;SDS011;3579;48.956;9.154;2022-07-29T13:32:23;5.50;;;3.70;;
7076;SDS011;3579;48.956;9.154;2022-07-29T13:34:50;7.67;;;3.90;;
7076;SDS011;3579;48.956;9.154;2022-07-29T13:37:17;5.93;;;3.67;;
7076;SDS011;3579;48.956;9.154;2022-07-29T13:39:43;6.07;;;3.20;;
7076;SDS011;3579;48.956;9.154;2022-07-29T13:42:09;5.70;;;3.53;;
7076;SDS011;3579;48.956;9.154;2022-07-29T13:44:38;8.40;;;3.87;;
7076;SDS011;3579;48.956;9.154;2022-07-29T13:47:05;7.63;;;3.90;;
7076;SDS011;3579;48.956;9.154;2022-07-29T13:49:31;5.03;;;3.20;;
7076;SDS011;3579;48.956;9.154;2022-07-29T13:51:57;9.30;;;3.63;;
7076;SDS011;3579;48.956;9.154;2022-07-29T13:54:23;7.00;;;3.90;;
7076;SDS011;3579;48.956;9.154;2022-07-29T13:56:50;4.27;;;3.60;;
7076;SDS011;3579;48.956;9.154;2022-07-29T13:59:16;7.10;;;3.43;;
7076;SDS011;3579;48.956;9.154;2022-07-29T14:01:42;9.00;;;3.33;;
7076;SDS011;3579;48.956;9.154;2022-07-29T14:04:09;4.47;;;3.43;;
7076;SDS011;3579;48.956;9.154;2022-07-29T14:06:35;7.03;;;3.30;;
7076;SDS011;3579;48.956;9.154;2022-07-29T14:09:02;7.97;;;3.37;;
7076;SDS011;3579;48.956;9.154;2022-07-29T14:11:31;5.60;;;3.30;;
7076;SDS011;3579;48.956;9.154;2022-07-29T14:13:58;5.50;;;3.50;;
7076;SDS011;3579;48.956;9.154;2022-07-29T14:16:24;8.13;;;3.43;;
7076;SDS011;3579;48.956;9.154;2022-07-29T14:18:50;6.87;;;3.60;;
7076;SDS011;3579;48.956;9.154;2022-07-29T14:21:16;4.40;;;3.03;;
7076;SDS011;3579;48.956;9.154;2022-07-29T14:23:42;6.97;;;3.30;;
7076;SDS011;3579;48.956;9.154;2022-07-29T14:26:08;9.77;;;2.97;;
7076;SDS011;3579;48.956;9.154;2022-07-29T14:28:34;5.97;;;3.50;;
7076;SDS011;3579;48.956;9.154;2022-07-29T14:31:01;6.00;;;3.20;;
7076;SDS011;3579;48.956;9.154;2022-07-29T14:33:27;5.90;;;2.90;;
7076;SDS011;3579;48.956;9.154;2022-07-29T14:35:53;3.67;;;2.80;;
7076;SDS011;3579;48.956;9.154;2022-07-29T14:38:19;5.33;;;3.30;;
7076;SDS011;3579;48.956;9.154;2022-07-29T14:40:45;4.87;;;2.90;;
7076;SDS011;3579;48.956;9.154;2022-07-29T14:43:12;4.13;;;2.80;;
7076;SDS011;3579;48.956;9.154;2022-07-29T14:45:39;6.60;;;3.50;;
7076;SDS011;3579;48.956;9.154;2022-07-29T14:48:05;5.57;;;3.17;;
7076;SDS011;3579;48.956;9.154;2022-07-29T14:50:32;3.80;;;3.20;;
7076;SDS011;3579;48.956;9.154;2022-07-29T14:52:58;5.77;;;3.03;;
7076;SDS011;3579;48.956;9.154;2022-07-29T14:55:26;6.23;;;2.80;;
7076;SDS011;3579;48.956;9.154;2022-07-29T14:57:52;5.13;;;3.17;;
7076;SDS011;3579;48.956;9.154;2022-07-29T15:00:19;4.30;;;2.77;;
7076;SDS011;3579;48.956;9.154;2022-07-29T15:02:46;4.00;;;2.93;;
7076;SDS011;3579;48.956;9.154;2022-07-29T15:05:12;7.00;;;2.93;;
7076;SDS011;3579;48.956;9.154;2022-07-29T15:07:39;3.57;;;2.97;;
7076;SDS011;3579;48.956;9.154;2022-07-29T15:10:06;3.93;;;2.70;;
7076;SDS011;3579;48.956;9.154;2022-07-29T15:12:32;3.80;;;2.73;;
7076;SDS011;3579;48.956;9.154;2022-07-29T15:14:58;5.67;;;3.03;;
7076;SDS011;3579;48.956;9.154;2022-07-29T15:17:25;5.20;;;2.97;;
7076;SDS011;3579;48.956;9.154;2022-07-29T15:19:51;7.23;;;3.10;;
7076;SDS011;3579;48.956;9.154;2022-07-29T15:22:17;4.20;;;2.63;;
7076;SDS011;3579;48.956;9.154;2022-07-29T15:24:43;4.73;;;2.83;;
7076;SDS011;3579;48.956;9.154;2022-07-29T15:27:09;4.83;;;2.53;;
7076;SDS011;3579;48.956;9.154;2022-07-29T15:29:42;4.03;;;2.87;;
7076;SDS011;3579;48.956;9.154;2022-07-29T15:32:09;3.17;;;2.33;;
7076;SDS011;3579;48.956;9.154;2022-07-29T15:34:35;4.27;;;2.70;;
7076;SDS011;3579;48.956;9.154;2022-07-29T15:37:02;3.73;;;2.70;;
7076;SDS011;3579;48.956;9.154;2022-07-29T15:39:29;4.03;;;2.80;;
7076;SDS011;3579;48.956;9.154;2022-07-29T15:41:57;4.97;;;2.77;;
7076;SDS011;3579;48.956;9.154;2022-07-29T15:44:27;2.90;;;2.57;;
7076;SDS011;3579;48.956;9.154;2022-07-29T15:46:53;3.70;;;2.43;;
7076;SDS011;3579;48.956;9.154;2022-07-29T15:51:58;3.77;;;2.90;;
7076;SDS011;3579;48.956;9.154;2022-07-29T15:54:25;3.53;;;2.80;;
7076;SDS011;3579;48.956;9.154;2022-07-29T15:56:52;3.70;;;2.60;;
7076;SDS011;3579;48.956;9.154;2022-07-29T15:59:19;3.40;;;3.00;;
7076;SDS011;3579;48.956;9.154;2022-07-29T16:01:45;3.80;;;2.57;;
7076;SDS011;3579;48.956;9.154;2022-07-29T16:04:12;3.23;;;2.60;;
7076;SDS011;3579;48.956;9.154;2022-07-29T16:06:38;3.57;;;2.70;;
7076;SDS011;3579;48.956;9.154;2022-07-29T16:09:04;3.80;;;2.77;;
7076;SDS011;3579;48.956;9.154;2022-07-29T16:11:30;4.23;;;2.40;;
7076;SDS011;3579;48.956;9.154;2022-07-29T16:13:57;3.10;;;2.60;;
7076;SDS011;3579;48.956;9.154;2022-07-29T16:16:23;3.07;;;2.60;;
7076;SDS011;3579;48.956;9.154;2022-07-29T16:18:49;2.93;;;2.20;;
7076;SDS011;3579;48.956;9.154;2022-07-29T16:21:16;3.00;;;2.40;;
7076;SDS011;3579;48.956;9.154;2022-07-29T16:23:42;3.67;;;2.70;;
7076;SDS011;3579;48.956;9.154;2022-07-29T16:26:08;2.60;;;2.40;;
7076;SDS011;3579;48.956;9.154;2022-07-29T16:28:36;4.10;;;2.50;;
7076;SDS011;3579;48.956;9.154;2022-07-29T16:31:03;2.83;;;2.30;;
7076;SDS011;3579;48.956;9.154;2022-07-29T16:33:29;3.10;;;2.37;;
7076;SDS011;3579;48.956;9.154;2022-07-29T16:35:55;2.80;;;2.30;;